Terminal Aerodrome Forecast
Issued by NWS

Home | Current Version | Previous Version | Text Only | Print | Product List | Glossary On
Versions: 1 2 3 4 5 6 7 8 9 10 11 12 13 14 15
000
FTUS44 KLZK 251720
TAFLLQ
TAF
KLLQ 251720Z 2518/2618 18014G22KT P6SM SCT250
     FM260100 16014G20KT P6SM SCT040
     FM260900 18012G18KT P6SM BKN015
     FM261500 18015G22KT P6SM SCT015 BKN025=

USA.gov is the U.S. government's official web portal to all federal, state and local government web resources and services.